createdAt,value
2019-03-21T00:00:18.004Z,22.20
2019-03-21T00:02:51.859Z,22.40
2019-03-21T00:05:25.199Z,22.60
2019-03-21T00:07:59.092Z,22.70
2019-03-21T00:10:37.626Z,22.90
2019-03-21T00:13:12.053Z,23.10
2019-03-21T00:15:52.562Z,23.20
2019-03-21T00:18:25.558Z,23.20
2019-03-21T00:20:58.520Z,23.20
2019-03-21T00:23:33.296Z,23.30
2019-03-21T00:26:08.341Z,23.30
2019-03-21T00:28:41.776Z,23.20
2019-03-21T00:31:19.136Z,23.30
2019-03-21T00:33:53.937Z,23.40
2019-03-21T00:36:27.916Z,23.50
2019-03-21T00:39:01.372Z,23.50
2019-03-21T00:41:36.741Z,23.70
2019-03-21T00:44:18.242Z,23.80
2019-03-21T00:46:48.493Z,23.80
2019-03-21T00:49:25.930Z,23.90
2019-03-21T00:52:01.786Z,23.70
2019-03-21T00:54:35.215Z,23.60
2019-03-21T00:57:08.311Z,23.80
2019-03-21T00:59:41.741Z,24.00
2019-03-21T01:02:14.620Z,24.20
2019-03-21T01:04:53.274Z,24.30
2019-03-21T01:07:26.513Z,24.40
2019-03-21T01:10:04.690Z,24.50
2019-03-21T01:12:39.019Z,24.70
2019-03-21T01:15:13.338Z,24.70
2019-03-21T01:17:46.293Z,24.60
2019-03-21T01:20:20.672Z,24.50
2019-03-21T01:22:58.347Z,24.50
2019-03-21T01:25:36.751Z,24.60
2019-03-21T01:28:10.647Z,24.70
2019-03-21T01:30:44.413Z,24.70
2019-03-21T01:33:18.794Z,24.70
2019-03-21T01:35:53.576Z,24.80
2019-03-21T01:38:26.679Z,24.80
2019-03-21T01:41:01.428Z,25.00
2019-03-21T01:43:34.830Z,25.10
2019-03-21T01:46:10.358Z,25.00
2019-03-21T01:48:43.880Z,25.00
2019-03-21T01:51:17.400Z,25.10
2019-03-21T01:53:50.639Z,25.10
2019-03-21T01:56:23.839Z,25.10
2019-03-21T01:59:00.843Z,25.00
2019-03-21T02:01:41.184Z,25.00
2019-03-21T02:04:08.587Z,25.00
2019-03-21T02:07:19.379Z,25.00
2019-03-21T02:09:16.187Z,24.90
2019-03-21T02:11:49.735Z,25.10
2019-03-21T02:14:22.655Z,25.10
2019-03-21T02:16:55.892Z,25.00
2019-03-21T02:19:29.364Z,24.90
2019-03-21T02:22:02.933Z,24.90
2019-03-21T02:24:35.591Z,24.90
2019-03-21T02:27:09.938Z,24.90
2019-03-21T02:29:42.863Z,25.00
2019-03-21T02:32:16.515Z,25.00
2019-03-21T02:34:50.009Z,25.10
2019-03-21T02:37:23.492Z,25.20
2019-03-21T02:39:59.701Z,25.20
2019-03-21T02:42:31.484Z,25.30
2019-03-21T02:45:08.889Z,25.40
2019-03-21T02:47:39.479Z,25.40
2019-03-21T02:50:14.900Z,25.50
2019-03-21T02:52:48.945Z,25.50
2019-03-21T02:55:22.135Z,25.50
2019-03-21T02:57:55.911Z,25.30
2019-03-21T03:00:31.023Z,25.40
2019-03-21T03:03:04.393Z,25.60
2019-03-21T03:05:37.616Z,25.70
2019-03-21T03:08:11.834Z,25.70
2019-03-21T03:11:03.487Z,25.80
2019-03-21T03:13:36.918Z,25.70
2019-03-21T03:16:11.004Z,25.90
2019-03-21T03:18:45.398Z,25.80
2019-03-21T03:21:37.954Z,25.90
2019-03-21T03:24:13.950Z,25.90
2019-03-21T03:26:46.972Z,26.10
2019-03-21T03:29:20.253Z,26.10
2019-03-21T03:31:55.125Z,26.00
2019-03-21T03:34:28.510Z,26.10
2019-03-21T03:37:01.492Z,26.10
2019-03-21T03:39:36.847Z,26.20
2019-03-21T03:42:08.784Z,26.10
2019-03-21T03:44:42.010Z,26.00
2019-03-21T03:47:15.003Z,26.20
2019-03-21T03:49:48.596Z,26.10
2019-03-21T03:52:21.679Z,25.90
2019-03-21T03:54:55.347Z,25.70
2019-03-21T03:57:28.370Z,25.60
2019-03-21T04:00:01.753Z,25.50
2019-03-21T04:02:34.540Z,25.60
2019-03-21T04:05:08.660Z,25.70
2019-03-21T04:07:42.074Z,25.80
2019-03-21T04:10:17.574Z,25.80
2019-03-21T04:12:50.783Z,25.60
2019-03-21T04:15:24.086Z,25.50
2019-03-21T04:17:57.113Z,25.40
2019-03-21T04:20:41.308Z,25.30
2019-03-21T04:23:14.626Z,25.20
2019-03-21T04:25:49.952Z,25.40
2019-03-21T04:28:22.958Z,25.50
2019-03-21T04:30:56.547Z,25.60
2019-03-21T04:33:29.656Z,25.60
2019-03-21T04:36:04.733Z,25.80
2019-03-21T04:38:37.988Z,25.80
2019-03-21T04:41:11.235Z,26.00
2019-03-21T04:43:44.228Z,26.10
2019-03-21T04:46:17.443Z,25.90
2019-03-21T04:48:50.530Z,26.00
2019-03-21T04:51:23.834Z,25.90
2019-03-21T04:53:57.037Z,25.80
2019-03-21T04:56:32.324Z,25.80
2019-03-21T04:59:05.416Z,25.80
2019-03-21T05:01:40.161Z,25.90
2019-03-21T05:04:14.188Z,25.90
2019-03-21T05:06:47.541Z,25.90
2019-03-21T05:09:21.911Z,26.00
2019-03-21T05:11:55.479Z,25.80
2019-03-21T05:14:31.191Z,25.80
2019-03-21T05:17:04.477Z,25.80
2019-03-21T05:19:37.520Z,25.80
2019-03-21T05:22:35.885Z,25.90
2019-03-21T05:25:14.915Z,26.00
2019-03-21T05:27:50.193Z,26.00
2019-03-21T05:30:25.006Z,25.90
2019-03-21T05:32:58.687Z,25.90
2019-03-21T05:35:35.179Z,25.90
2019-03-21T05:38:09.235Z,25.60
2019-03-21T05:40:42.335Z,25.50
2019-03-21T05:43:23.662Z,25.50
2019-03-21T05:45:56.755Z,25.30
2019-03-21T05:48:30.113Z,25.50
2019-03-21T05:51:03.204Z,25.40
2019-03-21T05:53:42.364Z,25.30
2019-03-21T05:56:14.079Z,25.20
2019-03-21T05:58:47.789Z,25.20
2019-03-21T06:01:24.625Z,25.20
2019-03-21T06:04:01.326Z,25.10
2019-03-21T06:06:44.996Z,25.00
2019-03-21T06:09:23.206Z,24.90
2019-03-21T06:12:01.373Z,25.00
2019-03-21T06:14:42.506Z,25.00
2019-03-21T06:17:15.960Z,25.10
2019-03-21T06:20:03.997Z,25.10
2019-03-21T06:22:47.886Z,25.00
2019-03-21T06:25:23.398Z,25.10
2019-03-21T06:27:56.449Z,25.10
2019-03-21T06:30:29.684Z,24.90
2019-03-21T06:33:23.201Z,24.90
2019-03-21T06:35:56.372Z,24.70
2019-03-21T06:38:47.326Z,24.70
2019-03-21T06:41:21.973Z,24.60
2019-03-21T06:43:54.956Z,24.50
2019-03-21T06:46:28.206Z,24.40
2019-03-21T06:49:04.746Z,24.40
2019-03-21T06:51:35.854Z,24.30
2019-03-21T06:54:09.101Z,24.30
2019-03-21T06:56:43.777Z,24.30
2019-03-21T06:59:16.861Z,24.40
2019-03-21T07:01:50.769Z,24.50
2019-03-21T07:04:23.911Z,24.50
2019-03-21T07:07:08.115Z,24.50
2019-03-21T07:09:36.415Z,24.40
2019-03-21T07:12:09.824Z,24.40
2019-03-21T07:14:42.820Z,24.40
2019-03-21T07:17:16.279Z,24.20
2019-03-21T07:19:49.780Z,24.20
2019-03-21T07:22:23.425Z,24.20
2019-03-21T07:24:56.400Z,24.10
2019-03-21T07:27:29.720Z,24.10
2019-03-21T07:30:05.600Z,24.00
2019-03-21T07:32:39.090Z,24.00
2019-03-21T07:35:13.496Z,24.00
2019-03-21T07:37:48.562Z,23.90
2019-03-21T07:40:21.261Z,23.90
2019-03-21T07:42:54.839Z,23.80
2019-03-21T07:45:28.343Z,23.70
2019-03-21T07:48:05.114Z,23.70
2019-03-21T07:50:37.589Z,23.70
2019-03-21T07:53:10.829Z,23.70
2019-03-21T07:55:44.171Z,23.60
2019-03-21T07:58:17.282Z,23.60
2019-03-21T08:00:51.159Z,23.50
2019-03-21T08:03:24.963Z,23.50
2019-03-21T08:05:57.995Z,23.50
2019-03-21T08:08:31.242Z,23.50
2019-03-21T08:11:06.979Z,23.40
2019-03-21T08:13:40.143Z,23.40
2019-03-21T08:16:13.202Z,23.40
2019-03-21T08:18:46.423Z,23.40
2019-03-21T08:21:19.892Z,23.40
2019-03-21T08:23:54.555Z,23.40
2019-03-21T08:26:27.896Z,23.30
2019-03-21T08:29:01.254Z,23.30
2019-03-21T08:31:38.682Z,23.30
2019-03-21T08:34:10.939Z,23.30
2019-03-21T08:36:47.562Z,23.20
2019-03-21T08:39:23.244Z,23.20
2019-03-21T08:41:57.651Z,23.20
2019-03-21T08:44:31.752Z,23.20
2019-03-21T08:47:04.734Z,23.20
2019-03-21T08:49:43.838Z,23.10
2019-03-21T08:52:15.667Z,23.10
2019-03-21T08:54:49.386Z,23.00
2019-03-21T08:57:22.624Z,23.00
2019-03-21T08:59:57.074Z,23.00
2019-03-21T09:02:30.238Z,23.00
2019-03-21T09:05:03.592Z,23.00
2019-03-21T09:07:36.701Z,23.00
2019-03-21T09:10:10.462Z,23.00
2019-03-21T09:12:43.799Z,23.10
2019-03-21T09:15:17.663Z,23.00
2019-03-21T09:17:51.620Z,23.00
2019-03-21T09:20:24.798Z,23.00
2019-03-21T09:22:58.353Z,23.00
2019-03-21T09:25:33.093Z,22.90
2019-03-21T09:28:06.300Z,22.90
2019-03-21T09:30:39.682Z,22.90
2019-03-21T09:33:12.463Z,22.90
2019-03-21T09:35:46.374Z,22.90
2019-03-21T09:38:19.538Z,22.90
2019-03-21T09:40:52.596Z,22.90
2019-03-21T09:43:25.470Z,23.00
2019-03-21T09:45:59.355Z,22.90
2019-03-21T09:48:32.603Z,23.00
2019-03-21T09:51:06.369Z,22.90
2019-03-21T09:53:39.399Z,22.90
2019-03-21T09:56:12.773Z,22.90
2019-03-21T09:58:45.623Z,22.90
2019-03-21T10:01:19.639Z,22.90
2019-03-21T10:03:53.125Z,22.90
2019-03-21T10:06:28.797Z,22.90
2019-03-21T10:09:01.775Z,22.90
2019-03-21T10:11:34.856Z,22.80
2019-03-21T10:14:07.741Z,22.80
2019-03-21T10:16:41.506Z,22.90
2019-03-21T10:19:14.726Z,22.80
2019-03-21T10:21:48.189Z,22.80
2019-03-21T10:24:21.476Z,22.80
2019-03-21T10:27:03.744Z,22.80
2019-03-21T10:29:40.089Z,22.80
2019-03-21T10:32:19.334Z,22.80
2019-03-21T10:35:06.126Z,22.80
2019-03-21T10:37:39.728Z,22.70
2019-03-21T10:40:13.948Z,22.70
2019-03-21T10:42:47.989Z,22.80
2019-03-21T10:45:21.393Z,22.70
2019-03-21T10:47:55.016Z,22.70
2019-03-21T10:50:35.113Z,22.60
2019-03-21T10:53:08.584Z,22.60
2019-03-21T10:55:41.600Z,22.60
2019-03-21T10:58:14.837Z,22.60
2019-03-21T11:00:56.124Z,22.60
2019-03-21T11:03:30.175Z,22.70
2019-03-21T11:06:04.723Z,22.70
2019-03-21T11:08:40.910Z,22.60
2019-03-21T11:11:13.857Z,22.60
2019-03-21T11:13:51.405Z,22.60
2019-03-21T11:16:25.800Z,22.60
2019-03-21T11:19:02.568Z,22.50
2019-03-21T11:21:38.973Z,22.50
2019-03-21T11:24:17.280Z,22.50
2019-03-21T11:26:50.858Z,22.50
2019-03-21T11:29:41.680Z,22.50
2019-03-21T11:32:21.680Z,22.50
2019-03-21T11:35:02.461Z,22.50
2019-03-21T11:38:30.755Z,22.50
2019-03-21T11:41:04.654Z,22.50
2019-03-21T11:43:37.908Z,22.50
2019-03-21T11:46:13.266Z,22.40
2019-03-21T11:48:48.762Z,22.40
2019-03-21T11:51:26.398Z,22.40
2019-03-21T11:53:59.792Z,22.40
2019-03-21T11:56:33.381Z,22.40
2019-03-21T11:59:09.586Z,22.40
2019-03-21T12:01:42.874Z,22.40
2019-03-21T12:04:16.972Z,22.30
2019-03-21T12:07:12.439Z,22.30
2019-03-21T12:09:46.445Z,22.30
2019-03-21T12:12:21.119Z,22.30
2019-03-21T12:14:56.083Z,22.20
2019-03-21T12:17:29.337Z,22.20
2019-03-21T12:20:03.438Z,22.10
2019-03-21T12:23:07.306Z,22.10
2019-03-21T12:25:43.328Z,22.10
2019-03-21T12:28:17.234Z,22.10
2019-03-21T12:30:50.387Z,22.10
2019-03-21T12:33:26.620Z,22.10
2019-03-21T12:36:00.894Z,22.00
2019-03-21T12:38:34.608Z,22.10
2019-03-21T12:41:08.320Z,22.00
2019-03-21T12:43:41.759Z,22.00
2019-03-21T12:46:15.111Z,22.00
2019-03-21T12:48:48.347Z,21.90
2019-03-21T12:51:21.321Z,21.90
2019-03-21T12:53:56.289Z,21.90
2019-03-21T12:56:29.248Z,21.80
2019-03-21T12:59:02.651Z,21.80
2019-03-21T13:01:35.627Z,21.80
2019-03-21T13:04:09.034Z,21.80
2019-03-21T13:06:43.206Z,21.80
2019-03-21T13:09:16.414Z,21.80
2019-03-21T13:11:50.792Z,21.80
2019-03-21T13:14:24.222Z,21.70
2019-03-21T13:16:58.162Z,21.70
2019-03-21T13:19:31.771Z,21.70
2019-03-21T13:22:08.078Z,21.70
2019-03-21T13:24:41.251Z,21.70
2019-03-21T13:27:14.324Z,21.70
2019-03-21T13:29:47.634Z,21.60
2019-03-21T13:32:20.653Z,21.60
2019-03-21T13:34:54.480Z,21.50
2019-03-21T13:37:27.428Z,21.40
2019-03-21T13:40:00.507Z,21.40
2019-03-21T13:42:34.051Z,21.40
2019-03-21T13:45:08.075Z,21.40
2019-03-21T13:47:41.549Z,21.50
2019-03-21T13:50:14.749Z,21.40
2019-03-21T13:52:47.645Z,21.40
2019-03-21T13:55:21.256Z,21.40
2019-03-21T13:57:54.589Z,21.40
2019-03-21T14:00:27.952Z,21.30
2019-03-21T14:03:01.191Z,21.40
2019-03-21T14:05:34.816Z,21.30
2019-03-21T14:08:08.043Z,21.30
2019-03-21T14:10:43.197Z,21.20
2019-03-21T14:13:16.208Z,21.20
2019-03-21T14:15:49.864Z,21.20
2019-03-21T14:18:23.277Z,21.20
2019-03-21T14:20:56.666Z,21.20
2019-03-21T14:23:29.578Z,21.20
2019-03-21T14:26:06.150Z,21.20
2019-03-21T14:28:38.626Z,21.20
2019-03-21T14:31:11.902Z,21.10
2019-03-21T14:33:44.937Z,21.10
2019-03-21T14:36:22.219Z,21.00
2019-03-21T14:38:55.011Z,21.00
2019-03-21T14:41:28.785Z,21.00
2019-03-21T14:44:03.446Z,21.00
2019-03-21T14:46:36.783Z,21.00
2019-03-21T14:49:09.989Z,20.90
2019-03-21T14:51:43.522Z,20.90
2019-03-21T14:54:16.619Z,20.80
2019-03-21T14:56:50.344Z,20.80
2019-03-21T14:59:23.367Z,20.70
2019-03-21T15:01:57.053Z,20.70
2019-03-21T15:04:30.053Z,20.70
2019-03-21T15:07:03.678Z,20.60
2019-03-21T15:09:36.935Z,20.60
2019-03-21T15:12:10.377Z,20.60
2019-03-21T15:14:43.601Z,20.60
2019-03-21T15:17:17.170Z,20.50
2019-03-21T15:19:50.243Z,20.50
2019-03-21T15:22:23.760Z,20.50
2019-03-21T15:24:56.865Z,20.50
2019-03-21T15:27:30.921Z,20.50
2019-03-21T15:30:04.543Z,20.50
2019-03-21T15:32:38.001Z,20.50
2019-03-21T15:35:16.858Z,20.50
2019-03-21T15:37:50.419Z,20.50
2019-03-21T15:40:23.465Z,20.40
2019-03-21T15:42:57.329Z,20.50
2019-03-21T15:45:30.363Z,20.50
2019-03-21T15:48:03.840Z,20.50
2019-03-21T15:50:38.376Z,20.50
2019-03-21T15:53:11.894Z,20.50
2019-03-21T15:55:45.260Z,20.40
2019-03-21T15:58:18.897Z,20.50
2019-03-21T16:00:51.962Z,20.50
2019-03-21T16:03:25.383Z,20.50
2019-03-21T16:06:02.432Z,20.50
2019-03-21T16:08:35.649Z,20.50
2019-03-21T16:11:08.614Z,20.60
2019-03-21T16:13:42.019Z,20.60
2019-03-21T16:16:15.508Z,20.50
2019-03-21T16:18:48.736Z,20.50
2019-03-21T16:21:21.867Z,20.50
2019-03-21T16:24:04.471Z,20.50
2019-03-21T16:26:29.391Z,20.60
2019-03-21T16:29:02.724Z,20.60
2019-03-21T16:31:36.233Z,20.60
2019-03-21T16:34:09.539Z,20.50
2019-03-21T16:36:42.636Z,20.40
2019-03-21T16:39:15.850Z,20.50
2019-03-21T16:41:50.574Z,20.50
2019-03-21T16:44:24.878Z,20.60
2019-03-21T16:46:57.774Z,20.60
2019-03-21T16:49:31.402Z,20.70
2019-03-21T16:52:04.428Z,20.70
2019-03-21T16:54:38.642Z,20.70
2019-03-21T16:57:11.685Z,20.70
2019-03-21T16:59:44.954Z,20.70
2019-03-21T17:02:17.969Z,20.70
2019-03-21T17:04:52.111Z,20.70
2019-03-21T17:07:25.762Z,20.70
2019-03-21T17:12:41.721Z,20.70
2019-03-21T17:15:15.215Z,20.70
2019-03-21T17:17:48.448Z,20.70
2019-03-21T17:20:21.747Z,20.70
2019-03-21T17:23:30.261Z,20.70
2019-03-21T17:26:04.254Z,20.70
2019-03-21T17:28:41.776Z,20.70
2019-03-21T17:31:16.997Z,20.70
2019-03-21T17:33:51.179Z,20.70
2019-03-21T17:36:24.622Z,20.70
2019-03-21T17:38:57.848Z,20.70
2019-03-21T17:41:31.282Z,20.60
2019-03-21T17:44:04.514Z,20.70
2019-03-21T17:46:37.921Z,20.70
2019-03-21T17:49:14.067Z,20.70
2019-03-21T17:51:47.417Z,20.70
2019-03-21T17:54:20.548Z,20.70
2019-03-21T17:56:53.925Z,20.70
2019-03-21T17:59:26.876Z,20.60
2019-03-21T18:02:00.218Z,20.60
2019-03-21T18:04:35.674Z,20.60
2019-03-21T18:07:07.653Z,20.50
2019-03-21T18:09:40.571Z,20.50
2019-03-21T18:12:13.821Z,20.50
2019-03-21T18:14:46.956Z,20.50
2019-03-21T18:17:21.154Z,20.50
2019-03-21T18:19:54.113Z,20.40
2019-03-21T18:22:27.867Z,20.40
2019-03-21T18:25:00.897Z,20.40
2019-03-21T18:27:34.525Z,20.40
2019-03-21T18:30:08.551Z,20.40
2019-03-21T18:32:41.735Z,20.40
2019-03-21T18:35:14.749Z,20.40
2019-03-21T18:37:48.188Z,20.40
2019-03-21T18:40:21.022Z,20.40
2019-03-21T18:42:55.487Z,20.40
2019-03-21T18:45:28.483Z,20.40
2019-03-21T18:48:01.569Z,20.40
2019-03-21T18:50:34.573Z,20.40
2019-03-21T18:53:08.467Z,20.30
2019-03-21T18:55:41.647Z,20.30
2019-03-21T18:58:15.000Z,20.20
2019-03-21T19:00:48.157Z,20.20
2019-03-21T19:03:21.909Z,20.20
2019-03-21T19:05:55.191Z,20.10
2019-03-21T19:08:28.341Z,20.20
2019-03-21T19:11:01.535Z,20.10
2019-03-21T19:13:35.004Z,20.20
2019-03-21T19:16:08.347Z,20.20
2019-03-21T19:18:41.634Z,20.20
2019-03-21T19:21:14.562Z,20.20
2019-03-21T19:23:47.984Z,20.20
2019-03-21T19:26:20.907Z,20.20
2019-03-21T19:28:54.412Z,20.20
2019-03-21T19:31:27.703Z,20.20
2019-03-21T19:34:01.546Z,20.20
2019-03-21T19:36:34.341Z,20.20
2019-03-21T19:39:08.518Z,20.20
2019-03-21T19:41:41.257Z,20.20
2019-03-21T19:44:14.688Z,20.20
2019-03-21T19:46:47.736Z,20.30
2019-03-21T19:49:21.367Z,20.30
2019-03-21T19:51:55.752Z,20.30
2019-03-21T19:54:29.141Z,20.30
2019-03-21T19:57:02.785Z,20.40
2019-03-21T19:59:36.565Z,20.40
2019-03-21T20:02:10.234Z,20.30
2019-03-21T20:04:48.278Z,20.40
2019-03-21T20:07:24.136Z,20.40
2019-03-21T20:09:59.167Z,20.40
2019-03-21T20:12:36.505Z,20.40
2019-03-21T20:15:14.229Z,20.40
2019-03-21T20:17:47.618Z,20.40
2019-03-21T20:20:24.082Z,20.40
2019-03-21T20:22:57.149Z,20.40
2019-03-21T20:25:41.984Z,20.50
2019-03-21T20:28:04.599Z,20.50
2019-03-21T20:30:37.762Z,20.40
2019-03-21T20:33:11.724Z,20.40
2019-03-21T20:35:45.953Z,20.40
2019-03-21T20:38:21.499Z,20.50
2019-03-21T20:40:54.511Z,20.60
2019-03-21T20:43:27.534Z,20.70
2019-03-21T20:46:03.062Z,20.70
2019-03-21T20:48:34.300Z,20.70
2019-03-21T20:51:07.607Z,20.70
2019-03-21T20:53:40.856Z,20.70
2019-03-21T20:56:14.194Z,20.70
2019-03-21T20:58:47.311Z,20.70
2019-03-21T21:01:20.544Z,20.80
2019-03-21T21:03:53.828Z,20.80
2019-03-21T21:06:27.143Z,20.80
2019-03-21T21:09:01.515Z,20.80
2019-03-21T21:11:36.167Z,20.90
2019-03-21T21:14:11.930Z,21.00
2019-03-21T21:16:46.265Z,21.00
2019-03-21T21:19:19.249Z,21.00
2019-03-21T21:21:54.524Z,21.10
2019-03-21T21:24:27.638Z,21.10
2019-03-21T21:27:01.249Z,21.20
2019-03-21T21:29:34.417Z,21.30
2019-03-21T21:32:08.036Z,21.30
2019-03-21T21:34:41.032Z,21.30
2019-03-21T21:37:14.606Z,21.30
2019-03-21T21:39:47.765Z,21.40
2019-03-21T21:42:31.018Z,21.50
2019-03-21T21:45:15.475Z,21.60
2019-03-21T21:47:51.125Z,21.50
2019-03-21T21:50:28.345Z,21.50
2019-03-21T21:53:01.498Z,21.40
2019-03-21T21:55:35.397Z,21.40
2019-03-21T21:58:08.563Z,21.40
2019-03-21T22:00:41.788Z,21.40
2019-03-21T22:03:18.167Z,21.50
2019-03-21T22:05:54.649Z,21.50
2019-03-21T22:08:28.203Z,21.50
2019-03-21T22:11:01.162Z,21.60
2019-03-21T22:13:36.771Z,21.60
2019-03-21T22:16:12.799Z,21.60
2019-03-21T22:18:45.960Z,21.60
2019-03-21T22:21:18.879Z,21.70
2019-03-21T22:23:52.388Z,21.70
2019-03-21T22:26:29.977Z,21.70
2019-03-21T22:29:00.839Z,21.80
2019-03-21T22:31:35.233Z,21.80
2019-03-21T22:34:10.048Z,21.90
2019-03-21T22:36:49.309Z,22.00
2019-03-21T22:39:20.937Z,22.00
2019-03-21T22:41:54.236Z,22.10
2019-03-21T22:44:28.843Z,22.30
2019-03-21T22:47:04.362Z,22.40
2019-03-21T22:49:39.109Z,22.60
2019-03-21T22:52:13.138Z,22.70
2019-03-21T22:55:07.083Z,22.90
2019-03-21T22:57:40.126Z,23.00
2019-03-21T23:00:15.824Z,23.00
2019-03-21T23:02:49.315Z,23.10
2019-03-21T23:05:23.266Z,23.30
2019-03-21T23:07:57.559Z,23.40
2019-03-21T23:10:32.093Z,23.60
2019-03-21T23:13:06.193Z,23.80
2019-03-21T23:15:45.118Z,23.80
2019-03-21T23:18:19.529Z,23.90
2019-03-21T23:20:56.125Z,24.00
2019-03-21T23:23:28.006Z,23.80
2019-03-21T23:26:04.155Z,23.70
2019-03-21T23:28:37.393Z,23.60
2019-03-21T23:31:12.054Z,23.60
2019-03-21T23:33:45.242Z,23.60
2019-03-21T23:36:18.426Z,23.60
2019-03-21T23:38:51.562Z,23.60
2019-03-21T23:41:25.037Z,23.60
2019-03-21T23:43:58.333Z,23.60
2019-03-21T23:46:34.256Z,23.60
2019-03-21T23:49:06.097Z,23.60
2019-03-21T23:51:39.925Z,23.60
2019-03-21T23:54:15.602Z,23.70
2019-03-21T23:56:49.145Z,23.80
2019-03-21T23:59:22.359Z,23.90
